sensor_id;sensor_type;location;lat;lon;timestamp;P1;durP1;ratioP1;P2;durP2;ratioP2
70780;SDS011;59514;48.810;2.134;2023-07-29T00:01:33;1.60;;;1.02;;
70780;SDS011;59514;48.810;2.134;2023-07-29T00:03:58;1.73;;;1.20;;
70780;SDS011;59514;48.810;2.134;2023-07-29T00:06:24;1.02;;;0.98;;
70780;SDS011;59514;48.810;2.134;2023-07-29T00:08:49;1.10;;;1.10;;
70780;SDS011;59514;48.810;2.134;2023-07-29T00:11:15;0.98;;;0.98;;
70780;SDS011;59514;48.810;2.134;2023-07-29T00:13:40;1.02;;;1.00;;
70780;SDS011;59514;48.810;2.134;2023-07-29T00:16:05;1.55;;;1.00;;
70780;SDS011;59514;48.810;2.134;2023-07-29T00:18:31;1.10;;;1.00;;
70780;SDS011;59514;48.810;2.134;2023-07-29T00:20:57;1.67;;;1.30;;
70780;SDS011;59514;48.810;2.134;2023-07-29T00:23:22;1.48;;;1.38;;
70780;SDS011;59514;48.810;2.134;2023-07-29T00:25:48;1.17;;;1.08;;
70780;SDS011;59514;48.810;2.134;2023-07-29T00:28:13;1.38;;;1.25;;
70780;SDS011;59514;48.810;2.134;2023-07-29T00:30:38;1.60;;;1.20;;
70780;SDS011;59514;48.810;2.134;2023-07-29T00:33:03;1.67;;;1.10;;
70780;SDS011;59514;48.810;2.134;2023-07-29T00:35:29;1.10;;;1.00;;
70780;SDS011;59514;48.810;2.134;2023-07-29T00:37:54;1.90;;;1.27;;
70780;SDS011;59514;48.810;2.134;2023-07-29T00:40:20;1.50;;;1.20;;
70780;SDS011;59514;48.810;2.134;2023-07-29T00:42:45;2.25;;;1.50;;
70780;SDS011;59514;48.810;2.134;2023-07-29T00:45:10;1.70;;;1.30;;
70780;SDS011;59514;48.810;2.134;2023-07-29T00:47:36;5.97;;;1.40;;
70780;SDS011;59514;48.810;2.134;2023-07-29T00:50:02;1.08;;;0.98;;
70780;SDS011;59514;48.810;2.134;2023-07-29T00:52:28;2.03;;;1.17;;
70780;SDS011;59514;48.810;2.134;2023-07-29T00:54:53;1.20;;;1.03;;
70780;SDS011;59514;48.810;2.134;2023-07-29T00:57:18;1.67;;;1.10;;
70780;SDS011;59514;48.810;2.134;2023-07-29T00:59:44;1.13;;;1.02;;
70780;SDS011;59514;48.810;2.134;2023-07-29T01:02:09;2.17;;;1.20;;
70780;SDS011;59514;48.810;2.134;2023-07-29T01:04:35;1.52;;;1.27;;
70780;SDS011;59514;48.810;2.134;2023-07-29T01:07:07;1.05;;;1.02;;
70780;SDS011;59514;48.810;2.134;2023-07-29T01:09:41;0.95;;;0.95;;
70780;SDS011;59514;48.810;2.134;2023-07-29T01:12:09;1.35;;;1.25;;
70780;SDS011;59514;48.810;2.134;2023-07-29T01:17:13;1.40;;;0.98;;
70780;SDS011;59514;48.810;2.134;2023-07-29T01:22:12;1.65;;;1.10;;
70780;SDS011;59514;48.810;2.134;2023-07-29T01:24:38;3.92;;;1.17;;
70780;SDS011;59514;48.810;2.134;2023-07-29T01:27:04;1.10;;;1.00;;
70780;SDS011;59514;48.810;2.134;2023-07-29T01:29:30;2.05;;;1.40;;
70780;SDS011;59514;48.810;2.134;2023-07-29T01:31:56;1.20;;;1.10;;
70780;SDS011;59514;48.810;2.134;2023-07-29T01:34:24;0.85;;;0.85;;
70780;SDS011;59514;48.810;2.134;2023-07-29T01:36:51;1.00;;;1.00;;
70780;SDS011;59514;48.810;2.134;2023-07-29T01:39:17;3.30;;;1.13;;
70780;SDS011;59514;48.810;2.134;2023-07-29T01:41:45;3.85;;;1.73;;
70780;SDS011;59514;48.810;2.134;2023-07-29T01:44:10;1.23;;;1.13;;
70780;SDS011;59514;48.810;2.134;2023-07-29T01:46:36;2.20;;;1.00;;
70780;SDS011;59514;48.810;2.134;2023-07-29T01:49:01;0.70;;;0.70;;
70780;SDS011;59514;48.810;2.134;2023-07-29T01:51:27;2.50;;;1.10;;
70780;SDS011;59514;48.810;2.134;2023-07-29T01:53:52;1.95;;;1.27;;
70780;SDS011;59514;48.810;2.134;2023-07-29T01:56:18;1.53;;;0.97;;
70780;SDS011;59514;48.810;2.134;2023-07-29T01:58:43;1.67;;;1.10;;
70780;SDS011;59514;48.810;2.134;2023-07-29T02:01:08;1.93;;;0.83;;
70780;SDS011;59514;48.810;2.134;2023-07-29T02:03:33;0.87;;;0.80;;
70780;SDS011;59514;48.810;2.134;2023-07-29T02:05:58;1.92;;;1.10;;
70780;SDS011;59514;48.810;2.134;2023-07-29T02:08:24;0.83;;;0.83;;
70780;SDS011;59514;48.810;2.134;2023-07-29T02:10:49;1.03;;;0.93;;
70780;SDS011;59514;48.810;2.134;2023-07-29T02:13:14;0.80;;;0.80;;
70780;SDS011;59514;48.810;2.134;2023-07-29T02:15:40;1.02;;;0.70;;
70780;SDS011;59514;48.810;2.134;2023-07-29T02:18:05;1.13;;;0.88;;
70780;SDS011;59514;48.810;2.134;2023-07-29T02:20:32;0.77;;;0.75;;
70780;SDS011;59514;48.810;2.134;2023-07-29T02:22:57;1.10;;;1.00;;
70780;SDS011;59514;48.810;2.134;2023-07-29T02:25:22;0.82;;;0.80;;
70780;SDS011;59514;48.810;2.134;2023-07-29T02:27:48;1.90;;;0.83;;
70780;SDS011;59514;48.810;2.134;2023-07-29T02:30:13;0.70;;;0.70;;
70780;SDS011;59514;48.810;2.134;2023-07-29T02:32:38;1.10;;;1.00;;
70780;SDS011;59514;48.810;2.134;2023-07-29T02:35:04;1.10;;;1.00;;
70780;SDS011;59514;48.810;2.134;2023-07-29T02:37:30;0.73;;;0.70;;
70780;SDS011;59514;48.810;2.134;2023-07-29T02:39:55;1.30;;;1.00;;
70780;SDS011;59514;48.810;2.134;2023-07-29T02:42:20;0.80;;;0.80;;
70780;SDS011;59514;48.810;2.134;2023-07-29T02:44:45;1.10;;;1.00;;
70780;SDS011;59514;48.810;2.134;2023-07-29T02:47:10;2.03;;;1.10;;
70780;SDS011;59514;48.810;2.134;2023-07-29T02:49:36;1.17;;;0.80;;
70780;SDS011;59514;48.810;2.134;2023-07-29T02:52:01;1.27;;;1.03;;
70780;SDS011;59514;48.810;2.134;2023-07-29T02:54:27;1.50;;;1.08;;
70780;SDS011;59514;48.810;2.134;2023-07-29T02:56:52;0.82;;;0.80;;
70780;SDS011;59514;48.810;2.134;2023-07-29T02:59:17;1.37;;;1.23;;
70780;SDS011;59514;48.810;2.134;2023-07-29T03:01:43;1.90;;;1.20;;
70780;SDS011;59514;48.810;2.134;2023-07-29T03:04:08;0.80;;;0.80;;
70780;SDS011;59514;48.810;2.134;2023-07-29T03:06:38;2.03;;;1.10;;
70780;SDS011;59514;48.810;2.134;2023-07-29T03:09:03;1.45;;;1.30;;
70780;SDS011;59514;48.810;2.134;2023-07-29T03:11:28;1.90;;;1.38;;
70780;SDS011;59514;48.810;2.134;2023-07-29T03:13:53;1.50;;;1.40;;
70780;SDS011;59514;48.810;2.134;2023-07-29T03:16:19;1.80;;;1.17;;
70780;SDS011;59514;48.810;2.134;2023-07-29T03:18:44;2.07;;;1.50;;
70780;SDS011;59514;48.810;2.134;2023-07-29T03:21:10;3.13;;;1.50;;
70780;SDS011;59514;48.810;2.134;2023-07-29T03:23:35;2.92;;;1.35;;
70780;SDS011;59514;48.810;2.134;2023-07-29T03:26:01;2.10;;;1.67;;
70780;SDS011;59514;48.810;2.134;2023-07-29T03:28:29;1.85;;;1.67;;
70780;SDS011;59514;48.810;2.134;2023-07-29T03:30:55;3.10;;;1.98;;
70780;SDS011;59514;48.810;2.134;2023-07-29T03:33:21;2.05;;;1.83;;
70780;SDS011;59514;48.810;2.134;2023-07-29T03:35:46;2.85;;;1.88;;
70780;SDS011;59514;48.810;2.134;2023-07-29T03:38:12;2.30;;;2.10;;
70780;SDS011;59514;48.810;2.134;2023-07-29T03:40:38;1.70;;;1.60;;
70780;SDS011;59514;48.810;2.134;2023-07-29T03:43:03;2.58;;;2.30;;
70780;SDS011;59514;48.810;2.134;2023-07-29T03:45:29;2.93;;;1.70;;
70780;SDS011;59514;48.810;2.134;2023-07-29T03:47:57;1.88;;;1.67;;
70780;SDS011;59514;48.810;2.134;2023-07-29T03:50:23;2.10;;;1.90;;
70780;SDS011;59514;48.810;2.134;2023-07-29T03:52:49;2.60;;;1.70;;
70780;SDS011;59514;48.810;2.134;2023-07-29T03:55:14;1.80;;;1.70;;
70780;SDS011;59514;48.810;2.134;2023-07-29T03:57:40;3.63;;;1.98;;
70780;SDS011;59514;48.810;2.134;2023-07-29T04:00:06;2.10;;;1.97;;
70780;SDS011;59514;48.810;2.134;2023-07-29T04:02:31;3.75;;;1.90;;
70780;SDS011;59514;48.810;2.134;2023-07-29T04:04:56;3.53;;;2.33;;
70780;SDS011;59514;48.810;2.134;2023-07-29T04:07:21;3.03;;;2.13;;
70780;SDS011;59514;48.810;2.134;2023-07-29T04:09:47;2.65;;;2.17;;
70780;SDS011;59514;48.810;2.134;2023-07-29T04:12:12;2.30;;;2.10;;
70780;SDS011;59514;48.810;2.134;2023-07-29T04:14:37;1.88;;;1.77;;
70780;SDS011;59514;48.810;2.134;2023-07-29T04:17:06;2.08;;;1.90;;
70780;SDS011;59514;48.810;2.134;2023-07-29T04:19:31;2.17;;;1.98;;
70780;SDS011;59514;48.810;2.134;2023-07-29T04:21:57;2.37;;;1.80;;
70780;SDS011;59514;48.810;2.134;2023-07-29T04:24:22;1.63;;;1.50;;
70780;SDS011;59514;48.810;2.134;2023-07-29T04:26:48;1.70;;;1.60;;
70780;SDS011;59514;48.810;2.134;2023-07-29T04:29:13;1.98;;;1.52;;
70780;SDS011;59514;48.810;2.134;2023-07-29T04:31:39;1.60;;;1.50;;
70780;SDS011;59514;48.810;2.134;2023-07-29T04:34:04;1.30;;;1.20;;
70780;SDS011;59514;48.810;2.134;2023-07-29T04:36:30;1.20;;;1.20;;
70780;SDS011;59514;48.810;2.134;2023-07-29T04:38:55;1.30;;;1.23;;
70780;SDS011;59514;48.810;2.134;2023-07-29T04:41:20;8.68;;;2.75;;
70780;SDS011;59514;48.810;2.134;2023-07-29T04:43:45;1.40;;;1.30;;
70780;SDS011;59514;48.810;2.134;2023-07-29T04:46:11;1.50;;;1.40;;
70780;SDS011;59514;48.810;2.134;2023-07-29T04:48:36;2.25;;;1.95;;
70780;SDS011;59514;48.810;2.134;2023-07-29T04:51:02;1.53;;;1.43;;
70780;SDS011;59514;48.810;2.134;2023-07-29T04:53:27;2.70;;;1.37;;
70780;SDS011;59514;48.810;2.134;2023-07-29T04:55:52;1.63;;;1.52;;
70780;SDS011;59514;48.810;2.134;2023-07-29T04:58:18;1.47;;;1.37;;
70780;SDS011;59514;48.810;2.134;2023-07-29T05:00:43;1.37;;;1.27;;
70780;SDS011;59514;48.810;2.134;2023-07-29T05:03:08;1.65;;;1.20;;
70780;SDS011;59514;48.810;2.134;2023-07-29T05:05:33;1.30;;;1.20;;
70780;SDS011;59514;48.810;2.134;2023-07-29T05:07:59;1.50;;;1.40;;
70780;SDS011;59514;48.810;2.134;2023-07-29T05:10:24;1.35;;;1.25;;
70780;SDS011;59514;48.810;2.134;2023-07-29T05:12:49;1.70;;;1.60;;
70780;SDS011;59514;48.810;2.134;2023-07-29T05:15:15;1.03;;;1.03;;
70780;SDS011;59514;48.810;2.134;2023-07-29T05:17:40;2.00;;;1.30;;
70780;SDS011;59514;48.810;2.134;2023-07-29T05:20:06;0.63;;;0.63;;
70780;SDS011;59514;48.810;2.134;2023-07-29T05:22:31;1.40;;;1.30;;
70780;SDS011;59514;48.810;2.134;2023-07-29T05:24:56;1.08;;;1.00;;
70780;SDS011;59514;48.810;2.134;2023-07-29T05:27:22;0.83;;;0.83;;
70780;SDS011;59514;48.810;2.134;2023-07-29T05:29:47;1.10;;;1.00;;
70780;SDS011;59514;48.810;2.134;2023-07-29T05:32:12;1.20;;;1.10;;
70780;SDS011;59514;48.810;2.134;2023-07-29T05:34:37;1.73;;;1.20;;
70780;SDS011;59514;48.810;2.134;2023-07-29T05:37:03;0.90;;;0.90;;
70780;SDS011;59514;48.810;2.134;2023-07-29T05:39:29;1.20;;;1.10;;
70780;SDS011;59514;48.810;2.134;2023-07-29T05:41:54;1.05;;;0.95;;
70780;SDS011;59514;48.810;2.134;2023-07-29T05:44:20;1.63;;;1.10;;
70780;SDS011;59514;48.810;2.134;2023-07-29T05:46:45;1.97;;;1.53;;
70780;SDS011;59514;48.810;2.134;2023-07-29T05:49:10;1.57;;;1.00;;
70780;SDS011;59514;48.810;2.134;2023-07-29T05:51:36;1.75;;;0.93;;
70780;SDS011;59514;48.810;2.134;2023-07-29T05:54:01;1.60;;;0.95;;
70780;SDS011;59514;48.810;2.134;2023-07-29T05:56:26;1.70;;;0.90;;
70780;SDS011;59514;48.810;2.134;2023-07-29T05:58:52;0.90;;;0.90;;
70780;SDS011;59514;48.810;2.134;2023-07-29T06:01:17;1.17;;;0.87;;
70780;SDS011;59514;48.810;2.134;2023-07-29T06:03:46;2.08;;;1.38;;
70780;SDS011;59514;48.810;2.134;2023-07-29T06:06:11;0.77;;;0.73;;
70780;SDS011;59514;48.810;2.134;2023-07-29T06:08:36;0.83;;;0.83;;
70780;SDS011;59514;48.810;2.134;2023-07-29T06:11:01;1.30;;;0.73;;
70780;SDS011;59514;48.810;2.134;2023-07-29T06:13:27;1.73;;;1.03;;
70780;SDS011;59514;48.810;2.134;2023-07-29T06:15:52;0.97;;;0.70;;
70780;SDS011;59514;48.810;2.134;2023-07-29T06:18:17;1.33;;;0.75;;
70780;SDS011;59514;48.810;2.134;2023-07-29T06:20:42;0.70;;;0.70;;
70780;SDS011;59514;48.810;2.134;2023-07-29T06:23:08;0.82;;;0.70;;
70780;SDS011;59514;48.810;2.134;2023-07-29T06:25:33;0.43;;;0.43;;
70780;SDS011;59514;48.810;2.134;2023-07-29T06:27:59;0.60;;;0.57;;
70780;SDS011;59514;48.810;2.134;2023-07-29T06:30:24;0.50;;;0.50;;
70780;SDS011;59514;48.810;2.134;2023-07-29T06:32:49;1.30;;;0.70;;
70780;SDS011;59514;48.810;2.134;2023-07-29T06:35:14;0.60;;;0.60;;
70780;SDS011;59514;48.810;2.134;2023-07-29T06:37:40;0.85;;;0.57;;
70780;SDS011;59514;48.810;2.134;2023-07-29T06:40:05;0.68;;;0.68;;
70780;SDS011;59514;48.810;2.134;2023-07-29T06:42:31;2.35;;;0.80;;
70780;SDS011;59514;48.810;2.134;2023-07-29T06:44:56;0.70;;;0.70;;
70780;SDS011;59514;48.810;2.134;2023-07-29T06:47:21;0.43;;;0.40;;
70780;SDS011;59514;48.810;2.134;2023-07-29T06:49:46;0.40;;;0.40;;
70780;SDS011;59514;48.810;2.134;2023-07-29T06:52:12;0.70;;;0.60;;
70780;SDS011;59514;48.810;2.134;2023-07-29T06:54:40;0.90;;;0.50;;
70780;SDS011;59514;48.810;2.134;2023-07-29T06:57:06;0.60;;;0.60;;
70780;SDS011;59514;48.810;2.134;2023-07-29T06:59:31;1.17;;;0.50;;
70780;SDS011;59514;48.810;2.134;2023-07-29T07:01:56;0.97;;;0.50;;
70780;SDS011;59514;48.810;2.134;2023-07-29T07:04:21;0.60;;;0.53;;
70780;SDS011;59514;48.810;2.134;2023-07-29T07:06:47;0.80;;;0.60;;
70780;SDS011;59514;48.810;2.134;2023-07-29T07:09:12;0.47;;;0.47;;
70780;SDS011;59514;48.810;2.134;2023-07-29T07:11:37;0.47;;;0.47;;
70780;SDS011;59514;48.810;2.134;2023-07-29T07:14:03;1.02;;;0.80;;
70780;SDS011;59514;48.810;2.134;2023-07-29T07:16:28;0.77;;;0.77;;
70780;SDS011;59514;48.810;2.134;2023-07-29T07:18:55;1.60;;;0.50;;
70780;SDS011;59514;48.810;2.134;2023-07-29T07:21:20;0.98;;;0.68;;
70780;SDS011;59514;48.810;2.134;2023-07-29T07:23:46;0.57;;;0.50;;
70780;SDS011;59514;48.810;2.134;2023-07-29T07:26:11;0.60;;;0.50;;
70780;SDS011;59514;48.810;2.134;2023-07-29T07:28:36;0.50;;;0.50;;
70780;SDS011;59514;48.810;2.134;2023-07-29T07:31:03;0.60;;;0.60;;
70780;SDS011;59514;48.810;2.134;2023-07-29T07:33:29;0.50;;;0.50;;
70780;SDS011;59514;48.810;2.134;2023-07-29T07:35:57;0.70;;;0.50;;
70780;SDS011;59514;48.810;2.134;2023-07-29T07:38:22;0.90;;;0.70;;
70780;SDS011;59514;48.810;2.134;2023-07-29T07:40:54;0.70;;;0.70;;
70780;SDS011;59514;48.810;2.134;2023-07-29T07:43:20;0.65;;;0.60;;
70780;SDS011;59514;48.810;2.134;2023-07-29T07:45:45;0.40;;;0.40;;
70780;SDS011;59514;48.810;2.134;2023-07-29T07:48:10;1.50;;;0.50;;
70780;SDS011;59514;48.810;2.134;2023-07-29T07:50:38;0.80;;;0.70;;
70780;SDS011;59514;48.810;2.134;2023-07-29T07:53:03;0.50;;;0.50;;
70780;SDS011;59514;48.810;2.134;2023-07-29T07:55:28;1.10;;;0.50;;
70780;SDS011;59514;48.810;2.134;2023-07-29T07:57:53;0.57;;;0.57;;
70780;SDS011;59514;48.810;2.134;2023-07-29T08:00:19;1.25;;;0.52;;
70780;SDS011;59514;48.810;2.134;2023-07-29T08:02:44;0.90;;;0.60;;
70780;SDS011;59514;48.810;2.134;2023-07-29T08:05:10;0.67;;;0.67;;
70780;SDS011;59514;48.810;2.134;2023-07-29T08:07:35;1.90;;;0.50;;
70780;SDS011;59514;48.810;2.134;2023-07-29T08:10:00;0.97;;;0.60;;
70780;SDS011;59514;48.810;2.134;2023-07-29T08:12:25;1.37;;;0.70;;
70780;SDS011;59514;48.810;2.134;2023-07-29T08:14:51;2.03;;;0.70;;
70780;SDS011;59514;48.810;2.134;2023-07-29T08:17:16;0.60;;;0.60;;
70780;SDS011;59514;48.810;2.134;2023-07-29T08:19:42;1.05;;;0.95;;
70780;SDS011;59514;48.810;2.134;2023-07-29T08:22:07;0.73;;;0.60;;
70780;SDS011;59514;48.810;2.134;2023-07-29T08:24:32;1.00;;;0.73;;
70780;SDS011;59514;48.810;2.134;2023-07-29T08:26:59;0.60;;;0.60;;
70780;SDS011;59514;48.810;2.134;2023-07-29T08:29:24;0.60;;;0.53;;
70780;SDS011;59514;48.810;2.134;2023-07-29T08:31:49;1.10;;;0.50;;
70780;SDS011;59514;48.810;2.134;2023-07-29T08:34:16;0.70;;;0.70;;
70780;SDS011;59514;48.810;2.134;2023-07-29T08:36:41;0.40;;;0.40;;
70780;SDS011;59514;48.810;2.134;2023-07-29T08:39:07;0.70;;;0.70;;
70780;SDS011;59514;48.810;2.134;2023-07-29T08:44:12;0.98;;;0.50;;
70780;SDS011;59514;48.810;2.134;2023-07-29T08:46:38;0.80;;;0.57;;
70780;SDS011;59514;48.810;2.134;2023-07-29T08:49:03;0.88;;;0.40;;
70780;SDS011;59514;48.810;2.134;2023-07-29T08:51:29;0.73;;;0.40;;
70780;SDS011;59514;48.810;2.134;2023-07-29T08:53:56;2.03;;;0.70;;
70780;SDS011;59514;48.810;2.134;2023-07-29T08:56:21;0.87;;;0.63;;
70780;SDS011;59514;48.810;2.134;2023-07-29T08:58:46;1.05;;;0.70;;
70780;SDS011;59514;48.810;2.134;2023-07-29T09:01:12;0.70;;;0.70;;
70780;SDS011;59514;48.810;2.134;2023-07-29T09:03:37;2.10;;;1.10;;
70780;SDS011;59514;48.810;2.134;2023-07-29T09:06:02;1.63;;;1.23;;
70780;SDS011;59514;48.810;2.134;2023-07-29T09:08:28;0.95;;;0.85;;
70780;SDS011;59514;48.810;2.134;2023-07-29T09:10:54;1.58;;;0.70;;
70780;SDS011;59514;48.810;2.134;2023-07-29T09:13:20;1.13;;;1.00;;
70780;SDS011;59514;48.810;2.134;2023-07-29T09:15:45;0.93;;;0.90;;
70780;SDS011;59514;48.810;2.134;2023-07-29T09:18:12;0.85;;;0.85;;
70780;SDS011;59514;48.810;2.134;2023-07-29T09:20:37;1.15;;;0.60;;
70780;SDS011;59514;48.810;2.134;2023-07-29T09:23:02;0.52;;;0.52;;
70780;SDS011;59514;48.810;2.134;2023-07-29T09:25:29;0.80;;;0.80;;
70780;SDS011;59514;48.810;2.134;2023-07-29T09:28:00;0.80;;;0.80;;
70780;SDS011;59514;48.810;2.134;2023-07-29T09:30:26;0.68;;;0.60;;
70780;SDS011;59514;48.810;2.134;2023-07-29T09:32:56;1.48;;;0.80;;
70780;SDS011;59514;48.810;2.134;2023-07-29T09:35:22;2.13;;;1.00;;
70780;SDS011;59514;48.810;2.134;2023-07-29T09:37:47;0.77;;;0.77;;
70780;SDS011;59514;48.810;2.134;2023-07-29T09:40:13;0.75;;;0.75;;
70780;SDS011;59514;48.810;2.134;2023-07-29T09:42:40;0.85;;;0.80;;
70780;SDS011;59514;48.810;2.134;2023-07-29T09:45:14;1.33;;;1.23;;
70780;SDS011;59514;48.810;2.134;2023-07-29T09:47:45;0.82;;;0.82;;
70780;SDS011;59514;48.810;2.134;2023-07-29T09:50:11;1.30;;;0.90;;
70780;SDS011;59514;48.810;2.134;2023-07-29T09:52:36;1.40;;;1.00;;
70780;SDS011;59514;48.810;2.134;2023-07-29T09:55:01;1.13;;;1.02;;
70780;SDS011;59514;48.810;2.134;2023-07-29T09:57:27;0.90;;;0.90;;
70780;SDS011;59514;48.810;2.134;2023-07-29T09:59:53;2.13;;;0.80;;
70780;SDS011;59514;48.810;2.134;2023-07-29T10:02:18;1.25;;;1.15;;
70780;SDS011;59514;48.810;2.134;2023-07-29T10:04:45;1.05;;;0.95;;
70780;SDS011;59514;48.810;2.134;2023-07-29T10:07:11;1.00;;;1.00;;
70780;SDS011;59514;48.810;2.134;2023-07-29T10:09:37;1.13;;;1.02;;
70780;SDS011;59514;48.810;2.134;2023-07-29T10:12:03;0.90;;;0.90;;
70780;SDS011;59514;48.810;2.134;2023-07-29T10:14:30;0.95;;;0.90;;
70780;SDS011;59514;48.810;2.134;2023-07-29T10:16:56;0.97;;;0.97;;
70780;SDS011;59514;48.810;2.134;2023-07-29T10:19:22;1.10;;;1.00;;
70780;SDS011;59514;48.810;2.134;2023-07-29T10:21:47;5.88;;;1.27;;
70780;SDS011;59514;48.810;2.134;2023-07-29T10:24:18;0.82;;;0.82;;
70780;SDS011;59514;48.810;2.134;2023-07-29T10:26:45;0.85;;;0.85;;
70780;SDS011;59514;48.810;2.134;2023-07-29T10:29:11;1.20;;;1.10;;
70780;SDS011;59514;48.810;2.134;2023-07-29T10:31:37;1.02;;;0.90;;
70780;SDS011;59514;48.810;2.134;2023-07-29T10:34:04;1.20;;;1.10;;
70780;SDS011;59514;48.810;2.134;2023-07-29T10:36:29;1.08;;;1.02;;
70780;SDS011;59514;48.810;2.134;2023-07-29T10:38:55;3.22;;;1.15;;
70780;SDS011;59514;48.810;2.134;2023-07-29T10:41:20;1.27;;;1.17;;
70780;SDS011;59514;48.810;2.134;2023-07-29T10:43:45;1.87;;;1.10;;
70780;SDS011;59514;48.810;2.134;2023-07-29T10:46:17;1.33;;;1.23;;
70780;SDS011;59514;48.810;2.134;2023-07-29T10:48:43;1.15;;;1.05;;
70780;SDS011;59514;48.810;2.134;2023-07-29T10:54:00;0.90;;;0.90;;
70780;SDS011;59514;48.810;2.134;2023-07-29T10:58:58;1.10;;;1.02;;
70780;SDS011;59514;48.810;2.134;2023-07-29T11:01:27;0.95;;;0.80;;
70780;SDS011;59514;48.810;2.134;2023-07-29T11:07:01;1.27;;;0.90;;
70780;SDS011;59514;48.810;2.134;2023-07-29T11:09:40;0.80;;;0.80;;
70780;SDS011;59514;48.810;2.134;2023-07-29T11:14:50;1.10;;;1.00;;
70780;SDS011;59514;48.810;2.134;2023-07-29T11:17:16;2.30;;;0.77;;
70780;SDS011;59514;48.810;2.134;2023-07-29T11:19:42;1.50;;;0.70;;
70780;SDS011;59514;48.810;2.134;2023-07-29T11:22:17;1.25;;;0.80;;
70780;SDS011;59514;48.810;2.134;2023-07-29T11:24:45;2.80;;;0.75;;
70780;SDS011;59514;48.810;2.134;2023-07-29T11:27:13;1.27;;;0.90;;
70780;SDS011;59514;48.810;2.134;2023-07-29T11:29:38;1.52;;;0.80;;
70780;SDS011;59514;48.810;2.134;2023-07-29T11:32:04;0.77;;;0.77;;
70780;SDS011;59514;48.810;2.134;2023-07-29T11:34:32;0.70;;;0.65;;
70780;SDS011;59514;48.810;2.134;2023-07-29T11:36:58;0.68;;;0.50;;
70780;SDS011;59514;48.810;2.134;2023-07-29T11:39:23;2.20;;;0.90;;
70780;SDS011;59514;48.810;2.134;2023-07-29T11:41:49;1.10;;;0.88;;
70780;SDS011;59514;48.810;2.134;2023-07-29T11:44:16;1.23;;;0.80;;
70780;SDS011;59514;48.810;2.134;2023-07-29T11:46:41;1.83;;;0.85;;
70780;SDS011;59514;48.810;2.134;2023-07-29T11:49:07;1.55;;;1.00;;
70780;SDS011;59514;48.810;2.134;2023-07-29T11:51:33;0.93;;;0.63;;
70780;SDS011;59514;48.810;2.134;2023-07-29T11:53:58;0.67;;;0.67;;
70780;SDS011;59514;48.810;2.134;2023-07-29T11:56:23;2.35;;;0.73;;
70780;SDS011;59514;48.810;2.134;2023-07-29T11:58:49;0.90;;;0.60;;
70780;SDS011;59514;48.810;2.134;2023-07-29T12:01:15;1.67;;;0.90;;
70780;SDS011;59514;48.810;2.134;2023-07-29T12:03:40;1.33;;;0.80;;
70780;SDS011;59514;48.810;2.134;2023-07-29T12:06:05;1.23;;;0.82;;
70780;SDS011;59514;48.810;2.134;2023-07-29T12:08:31;0.75;;;0.60;;
70780;SDS011;59514;48.810;2.134;2023-07-29T12:10:57;0.68;;;0.57;;
70780;SDS011;59514;48.810;2.134;2023-07-29T12:13:25;1.47;;;0.70;;
70780;SDS011;59514;48.810;2.134;2023-07-29T12:15:50;1.50;;;0.80;;
70780;SDS011;59514;48.810;2.134;2023-07-29T12:18:16;1.05;;;0.80;;
70780;SDS011;59514;48.810;2.134;2023-07-29T12:20:41;0.90;;;0.60;;
70780;SDS011;59514;48.810;2.134;2023-07-29T12:23:06;1.55;;;0.80;;
70780;SDS011;59514;48.810;2.134;2023-07-29T12:25:33;0.77;;;0.77;;
70780;SDS011;59514;48.810;2.134;2023-07-29T12:28:07;1.08;;;0.60;;
70780;SDS011;59514;48.810;2.134;2023-07-29T12:30:32;0.65;;;0.65;;
70780;SDS011;59514;48.810;2.134;2023-07-29T12:32:58;0.73;;;0.60;;
70780;SDS011;59514;48.810;2.134;2023-07-29T12:35:23;1.20;;;0.90;;
70780;SDS011;59514;48.810;2.134;2023-07-29T12:37:58;1.80;;;0.77;;
70780;SDS011;59514;48.810;2.134;2023-07-29T12:40:24;0.82;;;0.68;;
70780;SDS011;59514;48.810;2.134;2023-07-29T12:42:50;0.50;;;0.50;;
70780;SDS011;59514;48.810;2.134;2023-07-29T12:45:16;0.80;;;0.70;;
70780;SDS011;59514;48.810;2.134;2023-07-29T12:47:42;1.33;;;0.50;;
70780;SDS011;59514;48.810;2.134;2023-07-29T12:50:08;0.70;;;0.70;;
70780;SDS011;59514;48.810;2.134;2023-07-29T12:52:33;0.63;;;0.50;;
70780;SDS011;59514;48.810;2.134;2023-07-29T12:54:58;0.90;;;0.90;;
70780;SDS011;59514;48.810;2.134;2023-07-29T12:57:24;0.88;;;0.80;;
70780;SDS011;59514;48.810;2.134;2023-07-29T12:59:49;0.75;;;0.75;;
70780;SDS011;59514;48.810;2.134;2023-07-29T13:02:14;1.00;;;0.90;;
70780;SDS011;59514;48.810;2.134;2023-07-29T13:04:40;0.90;;;0.68;;
70780;SDS011;59514;48.810;2.134;2023-07-29T13:07:05;2.75;;;0.80;;
70780;SDS011;59514;48.810;2.134;2023-07-29T13:09:31;1.95;;;0.70;;
70780;SDS011;59514;48.810;2.134;2023-07-29T13:11:57;0.73;;;0.70;;
70780;SDS011;59514;48.810;2.134;2023-07-29T13:14:22;1.42;;;0.93;;
70780;SDS011;59514;48.810;2.134;2023-07-29T13:16:47;1.17;;;0.90;;
70780;SDS011;59514;48.810;2.134;2023-07-29T13:19:12;1.50;;;0.73;;
70780;SDS011;59514;48.810;2.134;2023-07-29T13:21:37;1.17;;;0.70;;
70780;SDS011;59514;48.810;2.134;2023-07-29T13:24:03;0.80;;;0.60;;
70780;SDS011;59514;48.810;2.134;2023-07-29T13:26:28;1.30;;;0.80;;
70780;SDS011;59514;48.810;2.134;2023-07-29T13:28:54;0.70;;;0.60;;
70780;SDS011;59514;48.810;2.134;2023-07-29T13:31:20;0.70;;;0.68;;
70780;SDS011;59514;48.810;2.134;2023-07-29T13:33:45;1.57;;;0.60;;
70780;SDS011;59514;48.810;2.134;2023-07-29T13:36:11;0.83;;;0.60;;
70780;SDS011;59514;48.810;2.134;2023-07-29T13:38:36;0.73;;;0.70;;
70780;SDS011;59514;48.810;2.134;2023-07-29T13:41:01;1.63;;;0.80;;
70780;SDS011;59514;48.810;2.134;2023-07-29T13:43:27;0.77;;;0.77;;
70780;SDS011;59514;48.810;2.134;2023-07-29T13:45:52;0.70;;;0.60;;
70780;SDS011;59514;48.810;2.134;2023-07-29T13:48:18;0.68;;;0.68;;
70780;SDS011;59514;48.810;2.134;2023-07-29T13:50:43;1.08;;;0.93;;
70780;SDS011;59514;48.810;2.134;2023-07-29T13:53:09;2.00;;;0.50;;
70780;SDS011;59514;48.810;2.134;2023-07-29T13:55:34;0.73;;;0.63;;
70780;SDS011;59514;48.810;2.134;2023-07-29T13:57:59;0.77;;;0.60;;
70780;SDS011;59514;48.810;2.134;2023-07-29T14:00:25;3.67;;;0.88;;
70780;SDS011;59514;48.810;2.134;2023-07-29T14:02:50;0.68;;;0.68;;
70780;SDS011;59514;48.810;2.134;2023-07-29T14:05:15;0.80;;;0.70;;
70780;SDS011;59514;48.810;2.134;2023-07-29T14:07:41;0.93;;;0.50;;
70780;SDS011;59514;48.810;2.134;2023-07-29T14:10:06;0.77;;;0.50;;
70780;SDS011;59514;48.810;2.134;2023-07-29T14:12:31;0.60;;;0.60;;
70780;SDS011;59514;48.810;2.134;2023-07-29T14:14:57;1.30;;;0.50;;
70780;SDS011;59514;48.810;2.134;2023-07-29T14:17:22;1.00;;;0.87;;
70780;SDS011;59514;48.810;2.134;2023-07-29T14:19:47;1.33;;;0.40;;
70780;SDS011;59514;48.810;2.134;2023-07-29T14:22:13;0.40;;;0.40;;
70780;SDS011;59514;48.810;2.134;2023-07-29T14:24:38;2.07;;;0.50;;
70780;SDS011;59514;48.810;2.134;2023-07-29T14:27:04;1.13;;;0.70;;
70780;SDS011;59514;48.810;2.134;2023-07-29T14:29:29;0.70;;;0.70;;
70780;SDS011;59514;48.810;2.134;2023-07-29T14:31:54;0.57;;;0.57;;
70780;SDS011;59514;48.810;2.134;2023-07-29T14:34:20;1.33;;;0.65;;
70780;SDS011;59514;48.810;2.134;2023-07-29T14:36:45;0.50;;;0.50;;
70780;SDS011;59514;48.810;2.134;2023-07-29T14:39:10;0.80;;;0.40;;
70780;SDS011;59514;48.810;2.134;2023-07-29T14:41:36;0.93;;;0.60;;
70780;SDS011;59514;48.810;2.134;2023-07-29T14:44:02;0.32;;;0.32;;
70780;SDS011;59514;48.810;2.134;2023-07-29T14:46:27;0.57;;;0.50;;
70780;SDS011;59514;48.810;2.134;2023-07-29T14:48:52;1.13;;;0.60;;
70780;SDS011;59514;48.810;2.134;2023-07-29T14:51:17;0.73;;;0.47;;
70780;SDS011;59514;48.810;2.134;2023-07-29T14:53:43;0.50;;;0.50;;
70780;SDS011;59514;48.810;2.134;2023-07-29T14:56:08;0.88;;;0.50;;
70780;SDS011;59514;48.810;2.134;2023-07-29T14:58:33;1.17;;;0.60;;